sensor_id;sensor_type;location;lat;lon;timestamp;temperature;humidity
11152;DHT22;5630;49.342;10.802;2022-10-16T00:00:52;14.70;99.90
11152;DHT22;5630;49.342;10.802;2022-10-16T00:03:18;14.70;99.90
11152;DHT22;5630;49.342;10.802;2022-10-16T00:05:43;14.70;99.90
11152;DHT22;5630;49.342;10.802;2022-10-16T00:08:11;14.70;99.90
11152;DHT22;5630;49.342;10.802;2022-10-16T00:10:37;14.70;99.90
11152;DHT22;5630;49.342;10.802;2022-10-16T00:13:03;14.70;99.90
11152;DHT22;5630;49.342;10.802;2022-10-16T00:15:30;14.70;99.90
11152;DHT22;5630;49.342;10.802;2022-10-16T00:17:56;14.70;99.90
11152;DHT22;5630;49.342;10.802;2022-10-16T00:20:21;14.70;99.90
11152;DHT22;5630;49.342;10.802;2022-10-16T00:22:47;14.70;99.90
11152;DHT22;5630;49.342;10.802;2022-10-16T00:25:12;14.70;99.90
11152;DHT22;5630;49.342;10.802;2022-10-16T00:27:38;14.70;99.90
11152;DHT22;5630;49.342;10.802;2022-10-16T00:30:04;14.70;99.90
11152;DHT22;5630;49.342;10.802;2022-10-16T00:32:30;14.70;99.90
11152;DHT22;5630;49.342;10.802;2022-10-16T00:34:55;14.70;99.90
11152;DHT22;5630;49.342;10.802;2022-10-16T00:37:21;14.70;99.90
11152;DHT22;5630;49.342;10.802;2022-10-16T00:39:47;14.70;99.90
11152;DHT22;5630;49.342;10.802;2022-10-16T00:42:16;14.70;99.90
11152;DHT22;5630;49.342;10.802;2022-10-16T00:44:48;14.70;99.90
11152;DHT22;5630;49.342;10.802;2022-10-16T00:47:41;14.70;99.90
11152;DHT22;5630;49.342;10.802;2022-10-16T00:52:55;14.70;99.90
11152;DHT22;5630;49.342;10.802;2022-10-16T00:55:21;14.70;99.90
11152;DHT22;5630;49.342;10.802;2022-10-16T00:57:48;14.60;99.90
11152;DHT22;5630;49.342;10.802;2022-10-16T01:00:19;14.60;99.90
11152;DHT22;5630;49.342;10.802;2022-10-16T01:02:51;14.60;99.90
11152;DHT22;5630;49.342;10.802;2022-10-16T01:05:16;14.60;99.90
11152;DHT22;5630;49.342;10.802;2022-10-16T01:15:42;14.60;99.90
11152;DHT22;5630;49.342;10.802;2022-10-16T01:28:55;14.60;99.90
11152;DHT22;5630;49.342;10.802;2022-10-16T01:31:26;14.60;99.90
11152;DHT22;5630;49.342;10.802;2022-10-16T01:36:46;14.60;99.90
11152;DHT22;5630;49.342;10.802;2022-10-16T01:39:14;14.60;99.90
11152;DHT22;5630;49.342;10.802;2022-10-16T01:41:52;14.60;99.90
11152;DHT22;5630;49.342;10.802;2022-10-16T01:44:22;14.60;99.90
11152;DHT22;5630;49.342;10.802;2022-10-16T01:46:52;14.60;99.90
11152;DHT22;5630;49.342;10.802;2022-10-16T01:49:20;14.60;99.90
11152;DHT22;5630;49.342;10.802;2022-10-16T01:51:49;14.60;99.90
11152;DHT22;5630;49.342;10.802;2022-10-16T01:54:18;14.60;99.90
11152;DHT22;5630;49.342;10.802;2022-10-16T01:56:46;14.60;99.90
11152;DHT22;5630;49.342;10.802;2022-10-16T01:59:15;14.60;99.90
11152;DHT22;5630;49.342;10.802;2022-10-16T02:01:45;14.60;99.90
11152;DHT22;5630;49.342;10.802;2022-10-16T02:04:44;14.60;99.90
11152;DHT22;5630;49.342;10.802;2022-10-16T02:07:11;14.70;99.90
11152;DHT22;5630;49.342;10.802;2022-10-16T02:09:37;14.70;99.90
11152;DHT22;5630;49.342;10.802;2022-10-16T02:12:13;14.70;99.90
11152;DHT22;5630;49.342;10.802;2022-10-16T02:14:40;14.70;99.90
11152;DHT22;5630;49.342;10.802;2022-10-16T02:17:14;14.70;99.90
11152;DHT22;5630;49.342;10.802;2022-10-16T02:19:40;14.70;99.90
11152;DHT22;5630;49.342;10.802;2022-10-16T02:22:10;14.70;99.90
11152;DHT22;5630;49.342;10.802;2022-10-16T02:24:51;14.70;99.90
11152;DHT22;5630;49.342;10.802;2022-10-16T02:27:37;14.70;99.90
11152;DHT22;5630;49.342;10.802;2022-10-16T02:30:24;14.70;99.90
11152;DHT22;5630;49.342;10.802;2022-10-16T02:32:51;14.70;99.90
11152;DHT22;5630;49.342;10.802;2022-10-16T02:35:18;14.70;99.90
11152;DHT22;5630;49.342;10.802;2022-10-16T02:37:46;14.70;99.90
11152;DHT22;5630;49.342;10.802;2022-10-16T02:40:13;14.70;99.90
11152;DHT22;5630;49.342;10.802;2022-10-16T02:42:40;14.70;99.90
11152;DHT22;5630;49.342;10.802;2022-10-16T02:45:08;14.70;99.90
11152;DHT22;5630;49.342;10.802;2022-10-16T02:47:33;14.60;99.90
11152;DHT22;5630;49.342;10.802;2022-10-16T02:49:59;14.60;99.90
11152;DHT22;5630;49.342;10.802;2022-10-16T02:52:25;14.60;99.90
11152;DHT22;5630;49.342;10.802;2022-10-16T02:54:51;14.70;99.90
11152;DHT22;5630;49.342;10.802;2022-10-16T02:57:17;14.60;99.90
11152;DHT22;5630;49.342;10.802;2022-10-16T02:59:43;14.60;99.90
11152;DHT22;5630;49.342;10.802;2022-10-16T03:02:09;14.60;99.90
11152;DHT22;5630;49.342;10.802;2022-10-16T03:04:35;14.60;99.90
11152;DHT22;5630;49.342;10.802;2022-10-16T03:07:00;14.60;99.90
11152;DHT22;5630;49.342;10.802;2022-10-16T03:09:26;14.60;99.90
11152;DHT22;5630;49.342;10.802;2022-10-16T03:11:52;14.60;99.90
11152;DHT22;5630;49.342;10.802;2022-10-16T03:14:17;14.60;99.90
11152;DHT22;5630;49.342;10.802;2022-10-16T03:16:43;14.60;99.90
11152;DHT22;5630;49.342;10.802;2022-10-16T03:19:08;14.60;99.90
11152;DHT22;5630;49.342;10.802;2022-10-16T03:21:34;14.60;99.90
11152;DHT22;5630;49.342;10.802;2022-10-16T03:23:59;14.60;99.90
11152;DHT22;5630;49.342;10.802;2022-10-16T03:26:25;14.60;99.90
11152;DHT22;5630;49.342;10.802;2022-10-16T03:28:51;14.50;99.90
11152;DHT22;5630;49.342;10.802;2022-10-16T03:31:16;14.60;99.90
11152;DHT22;5630;49.342;10.802;2022-10-16T03:33:42;14.50;99.90
11152;DHT22;5630;49.342;10.802;2022-10-16T03:36:07;14.50;99.90
11152;DHT22;5630;49.342;10.802;2022-10-16T03:38:33;14.50;99.90
11152;DHT22;5630;49.342;10.802;2022-10-16T03:40:58;14.50;99.90
11152;DHT22;5630;49.342;10.802;2022-10-16T03:43:24;14.60;99.90
11152;DHT22;5630;49.342;10.802;2022-10-16T03:45:50;14.50;99.90
11152;DHT22;5630;49.342;10.802;2022-10-16T03:48:17;14.50;99.90
11152;DHT22;5630;49.342;10.802;2022-10-16T03:50:42;14.50;99.90
11152;DHT22;5630;49.342;10.802;2022-10-16T03:53:08;14.50;99.90
11152;DHT22;5630;49.342;10.802;2022-10-16T03:55:34;14.50;99.90
11152;DHT22;5630;49.342;10.802;2022-10-16T03:58:00;14.50;99.90
11152;DHT22;5630;49.342;10.802;2022-10-16T04:00:26;14.50;99.90
11152;DHT22;5630;49.342;10.802;2022-10-16T04:02:52;14.50;99.90
11152;DHT22;5630;49.342;10.802;2022-10-16T04:05:17;14.50;99.90
11152;DHT22;5630;49.342;10.802;2022-10-16T04:07:43;14.50;99.90
11152;DHT22;5630;49.342;10.802;2022-10-16T04:10:09;14.50;99.90
11152;DHT22;5630;49.342;10.802;2022-10-16T04:12:34;14.50;99.90
11152;DHT22;5630;49.342;10.802;2022-10-16T04:15:00;14.50;99.90
11152;DHT22;5630;49.342;10.802;2022-10-16T04:17:25;14.50;99.90
11152;DHT22;5630;49.342;10.802;2022-10-16T04:19:51;14.50;99.90
11152;DHT22;5630;49.342;10.802;2022-10-16T04:22:16;14.50;99.90
11152;DHT22;5630;49.342;10.802;2022-10-16T04:24:42;14.40;99.90
11152;DHT22;5630;49.342;10.802;2022-10-16T04:27:08;14.50;99.90
11152;DHT22;5630;49.342;10.802;2022-10-16T04:29:33;14.50;99.90
11152;DHT22;5630;49.342;10.802;2022-10-16T04:31:59;14.50;99.90
11152;DHT22;5630;49.342;10.802;2022-10-16T04:34:24;14.50;99.90
11152;DHT22;5630;49.342;10.802;2022-10-16T04:36:50;14.50;99.90
11152;DHT22;5630;49.342;10.802;2022-10-16T04:39:16;14.50;99.90
11152;DHT22;5630;49.342;10.802;2022-10-16T04:41:42;14.50;99.90
11152;DHT22;5630;49.342;10.802;2022-10-16T04:44:07;14.50;99.90
11152;DHT22;5630;49.342;10.802;2022-10-16T04:46:33;14.50;99.90
11152;DHT22;5630;49.342;10.802;2022-10-16T04:48:59;14.50;99.90
11152;DHT22;5630;49.342;10.802;2022-10-16T04:51:24;14.50;99.90
11152;DHT22;5630;49.342;10.802;2022-10-16T04:53:51;14.50;99.90
11152;DHT22;5630;49.342;10.802;2022-10-16T04:56:16;14.50;99.90
11152;DHT22;5630;49.342;10.802;2022-10-16T04:58:42;14.50;99.90
11152;DHT22;5630;49.342;10.802;2022-10-16T05:01:08;14.40;99.90
11152;DHT22;5630;49.342;10.802;2022-10-16T05:03:33;14.40;99.90
11152;DHT22;5630;49.342;10.802;2022-10-16T05:05:59;14.40;99.90
11152;DHT22;5630;49.342;10.802;2022-10-16T05:08:24;14.40;99.90
11152;DHT22;5630;49.342;10.802;2022-10-16T05:10:50;14.40;99.90
11152;DHT22;5630;49.342;10.802;2022-10-16T05:13:15;14.40;99.90
11152;DHT22;5630;49.342;10.802;2022-10-16T05:15:41;14.40;99.90
11152;DHT22;5630;49.342;10.802;2022-10-16T05:18:07;14.30;99.90
11152;DHT22;5630;49.342;10.802;2022-10-16T05:20:33;14.40;99.90
11152;DHT22;5630;49.342;10.802;2022-10-16T05:22:59;14.30;99.90
11152;DHT22;5630;49.342;10.802;2022-10-16T05:25:24;14.30;99.90
11152;DHT22;5630;49.342;10.802;2022-10-16T05:27:50;14.30;99.90
11152;DHT22;5630;49.342;10.802;2022-10-16T05:30:17;14.30;99.90
11152;DHT22;5630;49.342;10.802;2022-10-16T05:32:47;14.30;99.90
11152;DHT22;5630;49.342;10.802;2022-10-16T05:35:13;14.30;99.90
11152;DHT22;5630;49.342;10.802;2022-10-16T05:37:38;14.30;99.90
11152;DHT22;5630;49.342;10.802;2022-10-16T05:40:04;14.20;99.90
11152;DHT22;5630;49.342;10.802;2022-10-16T05:42:30;14.20;99.90
11152;DHT22;5630;49.342;10.802;2022-10-16T05:44:56;14.30;99.90
11152;DHT22;5630;49.342;10.802;2022-10-16T05:47:21;14.30;99.90
11152;DHT22;5630;49.342;10.802;2022-10-16T05:49:47;14.30;99.90
11152;DHT22;5630;49.342;10.802;2022-10-16T05:52:12;14.30;99.90
11152;DHT22;5630;49.342;10.802;2022-10-16T05:54:38;14.30;99.90
11152;DHT22;5630;49.342;10.802;2022-10-16T05:57:03;14.30;99.90
11152;DHT22;5630;49.342;10.802;2022-10-16T05:59:31;14.30;99.90
11152;DHT22;5630;49.342;10.802;2022-10-16T06:01:56;14.30;99.90
11152;DHT22;5630;49.342;10.802;2022-10-16T06:04:22;14.40;99.90
11152;DHT22;5630;49.342;10.802;2022-10-16T06:06:48;14.40;99.90
11152;DHT22;5630;49.342;10.802;2022-10-16T06:09:13;14.30;99.90
11152;DHT22;5630;49.342;10.802;2022-10-16T06:11:39;14.30;99.90
11152;DHT22;5630;49.342;10.802;2022-10-16T06:14:05;14.40;99.90
11152;DHT22;5630;49.342;10.802;2022-10-16T06:16:36;14.40;99.90
11152;DHT22;5630;49.342;10.802;2022-10-16T06:19:02;14.40;99.90
11152;DHT22;5630;49.342;10.802;2022-10-16T06:21:31;14.40;99.90
11152;DHT22;5630;49.342;10.802;2022-10-16T06:23:57;14.40;99.90
11152;DHT22;5630;49.342;10.802;2022-10-16T06:26:26;14.40;99.90
11152;DHT22;5630;49.342;10.802;2022-10-16T06:28:51;14.40;99.90
11152;DHT22;5630;49.342;10.802;2022-10-16T06:31:19;14.40;99.90
11152;DHT22;5630;49.342;10.802;2022-10-16T06:33:45;14.40;99.90
11152;DHT22;5630;49.342;10.802;2022-10-16T06:36:15;14.40;99.90
11152;DHT22;5630;49.342;10.802;2022-10-16T06:38:42;14.50;99.90
11152;DHT22;5630;49.342;10.802;2022-10-16T06:41:11;14.50;99.90
11152;DHT22;5630;49.342;10.802;2022-10-16T06:43:38;14.50;99.90
11152;DHT22;5630;49.342;10.802;2022-10-16T06:46:05;14.50;99.90
11152;DHT22;5630;49.342;10.802;2022-10-16T06:48:31;14.60;99.90
11152;DHT22;5630;49.342;10.802;2022-10-16T06:51:11;14.60;99.90
11152;DHT22;5630;49.342;10.802;2022-10-16T06:53:39;14.60;99.90
11152;DHT22;5630;49.342;10.802;2022-10-16T06:56:15;14.60;99.90
11152;DHT22;5630;49.342;10.802;2022-10-16T06:58:42;14.60;99.90
11152;DHT22;5630;49.342;10.802;2022-10-16T07:01:09;14.70;99.90
11152;DHT22;5630;49.342;10.802;2022-10-16T07:03:38;14.60;99.90
11152;DHT22;5630;49.342;10.802;2022-10-16T07:06:06;14.70;99.90
11152;DHT22;5630;49.342;10.802;2022-10-16T07:08:38;14.70;99.90
11152;DHT22;5630;49.342;10.802;2022-10-16T07:11:09;14.70;99.90
11152;DHT22;5630;49.342;10.802;2022-10-16T07:13:37;14.70;99.90
11152;DHT22;5630;49.342;10.802;2022-10-16T07:18:35;14.70;99.90
11152;DHT22;5630;49.342;10.802;2022-10-16T07:21:06;14.70;99.90
11152;DHT22;5630;49.342;10.802;2022-10-16T07:23:32;14.70;99.90
11152;DHT22;5630;49.342;10.802;2022-10-16T07:25:58;14.70;99.90
11152;DHT22;5630;49.342;10.802;2022-10-16T07:28:23;14.70;99.90
11152;DHT22;5630;49.342;10.802;2022-10-16T07:30:49;14.80;99.90
11152;DHT22;5630;49.342;10.802;2022-10-16T07:33:14;14.80;99.90
11152;DHT22;5630;49.342;10.802;2022-10-16T07:35:50;14.80;99.90
11152;DHT22;5630;49.342;10.802;2022-10-16T07:38:16;14.80;99.90
11152;DHT22;5630;49.342;10.802;2022-10-16T07:40:42;14.90;99.90
11152;DHT22;5630;49.342;10.802;2022-10-16T07:43:07;14.80;99.90
11152;DHT22;5630;49.342;10.802;2022-10-16T07:45:33;14.90;99.90
11152;DHT22;5630;49.342;10.802;2022-10-16T07:47:58;14.90;99.90
11152;DHT22;5630;49.342;10.802;2022-10-16T07:50:24;14.90;99.90
11152;DHT22;5630;49.342;10.802;2022-10-16T07:52:49;15.00;99.90
11152;DHT22;5630;49.342;10.802;2022-10-16T07:55:15;14.90;99.90
11152;DHT22;5630;49.342;10.802;2022-10-16T07:57:40;15.00;99.90
11152;DHT22;5630;49.342;10.802;2022-10-16T08:00:06;15.00;99.90
11152;DHT22;5630;49.342;10.802;2022-10-16T08:02:32;15.10;99.90
11152;DHT22;5630;49.342;10.802;2022-10-16T08:04:58;15.10;99.90
11152;DHT22;5630;49.342;10.802;2022-10-16T08:07:23;15.10;99.90
11152;DHT22;5630;49.342;10.802;2022-10-16T08:09:49;15.10;99.90
11152;DHT22;5630;49.342;10.802;2022-10-16T08:12:16;15.20;99.90
11152;DHT22;5630;49.342;10.802;2022-10-16T08:14:42;15.20;99.90
11152;DHT22;5630;49.342;10.802;2022-10-16T08:17:07;15.30;99.90
11152;DHT22;5630;49.342;10.802;2022-10-16T08:19:33;15.30;99.90
11152;DHT22;5630;49.342;10.802;2022-10-16T08:22:00;15.30;99.90
11152;DHT22;5630;49.342;10.802;2022-10-16T08:24:26;15.40;99.90
11152;DHT22;5630;49.342;10.802;2022-10-16T08:26:53;15.50;99.90
11152;DHT22;5630;49.342;10.802;2022-10-16T08:29:19;15.50;99.90
11152;DHT22;5630;49.342;10.802;2022-10-16T08:31:45;15.60;99.90
11152;DHT22;5630;49.342;10.802;2022-10-16T08:34:10;15.60;99.90
11152;DHT22;5630;49.342;10.802;2022-10-16T08:36:36;15.70;99.90
11152;DHT22;5630;49.342;10.802;2022-10-16T08:39:02;15.70;99.90
11152;DHT22;5630;49.342;10.802;2022-10-16T08:49:27;16.00;99.90
11152;DHT22;5630;49.342;10.802;2022-10-16T08:51:53;16.00;99.90
11152;DHT22;5630;49.342;10.802;2022-10-16T08:54:37;16.00;99.90
11152;DHT22;5630;49.342;10.802;2022-10-16T08:57:25;16.20;99.90
11152;DHT22;5630;49.342;10.802;2022-10-16T08:59:52;16.30;99.90
11152;DHT22;5630;49.342;10.802;2022-10-16T09:10:38;16.50;99.90
11152;DHT22;5630;49.342;10.802;2022-10-16T09:13:21;16.60;99.90
11152;DHT22;5630;49.342;10.802;2022-10-16T09:16:14;16.60;99.90
11152;DHT22;5630;49.342;10.802;2022-10-16T09:19:04;16.70;99.90
11152;DHT22;5630;49.342;10.802;2022-10-16T09:21:36;16.70;99.90
11152;DHT22;5630;49.342;10.802;2022-10-16T09:24:17;16.70;99.90
11152;DHT22;5630;49.342;10.802;2022-10-16T09:26:45;16.70;99.90
11152;DHT22;5630;49.342;10.802;2022-10-16T09:29:12;16.70;99.90
11152;DHT22;5630;49.342;10.802;2022-10-16T09:31:38;16.60;99.90
11152;DHT22;5630;49.342;10.802;2022-10-16T09:34:05;16.60;99.90
11152;DHT22;5630;49.342;10.802;2022-10-16T09:36:40;16.60;99.90
11152;DHT22;5630;49.342;10.802;2022-10-16T09:39:09;16.50;99.90
11152;DHT22;5630;49.342;10.802;2022-10-16T09:41:40;16.50;99.90
11152;DHT22;5630;49.342;10.802;2022-10-16T09:44:28;16.50;99.90
11152;DHT22;5630;49.342;10.802;2022-10-16T09:47:05;16.50;99.90
11152;DHT22;5630;49.342;10.802;2022-10-16T09:49:36;16.60;99.90
11152;DHT22;5630;49.342;10.802;2022-10-16T09:52:04;16.60;99.90
11152;DHT22;5630;49.342;10.802;2022-10-16T09:54:30;16.70;99.90
11152;DHT22;5630;49.342;10.802;2022-10-16T09:57:10;16.80;99.90
11152;DHT22;5630;49.342;10.802;2022-10-16T09:59:49;16.90;99.90
11152;DHT22;5630;49.342;10.802;2022-10-16T10:02:17;17.00;99.90
11152;DHT22;5630;49.342;10.802;2022-10-16T10:04:49;17.10;99.90
11152;DHT22;5630;49.342;10.802;2022-10-16T10:07:23;17.20;99.90
11152;DHT22;5630;49.342;10.802;2022-10-16T10:09:50;17.40;99.90
11152;DHT22;5630;49.342;10.802;2022-10-16T10:12:24;17.50;99.90
11152;DHT22;5630;49.342;10.802;2022-10-16T10:14:56;17.50;99.90
11152;DHT22;5630;49.342;10.802;2022-10-16T10:17:27;17.60;99.90
11152;DHT22;5630;49.342;10.802;2022-10-16T10:20:14;17.60;99.90
11152;DHT22;5630;49.342;10.802;2022-10-16T10:22:44;17.70;99.90
11152;DHT22;5630;49.342;10.802;2022-10-16T10:36:19;18.10;99.90
11152;DHT22;5630;49.342;10.802;2022-10-16T10:38:59;18.30;99.90
11152;DHT22;5630;49.342;10.802;2022-10-16T10:46:57;18.70;99.90
11152;DHT22;5630;49.342;10.802;2022-10-16T10:50:02;18.80;99.90
11152;DHT22;5630;49.342;10.802;2022-10-16T10:55:19;18.70;99.90
11152;DHT22;5630;49.342;10.802;2022-10-16T11:01:00;18.60;99.90
11152;DHT22;5630;49.342;10.802;2022-10-16T11:06:16;18.60;99.90
11152;DHT22;5630;49.342;10.802;2022-10-16T11:11:30;18.60;99.90
11152;DHT22;5630;49.342;10.802;2022-10-16T11:16:39;18.70;99.90
11152;DHT22;5630;49.342;10.802;2022-10-16T11:19:37;18.70;99.90
11152;DHT22;5630;49.342;10.802;2022-10-16T11:22:09;18.80;99.90
11152;DHT22;5630;49.342;10.802;2022-10-16T11:24:59;18.90;99.90
11152;DHT22;5630;49.342;10.802;2022-10-16T11:27:44;19.00;99.90
11152;DHT22;5630;49.342;10.802;2022-10-16T11:30:23;19.10;99.90
11152;DHT22;5630;49.342;10.802;2022-10-16T11:35:55;19.30;99.90
11152;DHT22;5630;49.342;10.802;2022-10-16T11:49:46;19.70;99.90
11152;DHT22;5630;49.342;10.802;2022-10-16T11:55:16;20.10;99.90
11152;DHT22;5630;49.342;10.802;2022-10-16T12:00:24;20.60;99.90
11152;DHT22;5630;49.342;10.802;2022-10-16T12:05:55;20.70;99.90
11152;DHT22;5630;49.342;10.802;2022-10-16T12:08:23;20.90;99.90
11152;DHT22;5630;49.342;10.802;2022-10-16T12:10:50;21.00;99.90
11152;DHT22;5630;49.342;10.802;2022-10-16T12:13:32;21.30;99.90
11152;DHT22;5630;49.342;10.802;2022-10-16T12:18:46;21.20;99.90
11152;DHT22;5630;49.342;10.802;2022-10-16T12:21:14;21.10;99.90
11152;DHT22;5630;49.342;10.802;2022-10-16T12:23:49;21.00;99.90
11152;DHT22;5630;49.342;10.802;2022-10-16T12:26:27;20.90;99.90
11152;DHT22;5630;49.342;10.802;2022-10-16T12:28:54;20.80;99.90
11152;DHT22;5630;49.342;10.802;2022-10-16T12:31:21;20.70;99.90
11152;DHT22;5630;49.342;10.802;2022-10-16T12:34:02;20.70;99.90
11152;DHT22;5630;49.342;10.802;2022-10-16T12:36:33;20.60;99.90
11152;DHT22;5630;49.342;10.802;2022-10-16T12:39:00;20.50;99.90
11152;DHT22;5630;49.342;10.802;2022-10-16T12:41:28;20.50;99.90
11152;DHT22;5630;49.342;10.802;2022-10-16T12:43:55;20.50;99.90
11152;DHT22;5630;49.342;10.802;2022-10-16T12:46:44;20.50;99.90
11152;DHT22;5630;49.342;10.802;2022-10-16T12:51:42;20.60;99.90
11152;DHT22;5630;49.342;10.802;2022-10-16T12:54:14;20.70;99.90
11152;DHT22;5630;49.342;10.802;2022-10-16T13:02:13;21.00;99.90
11152;DHT22;5630;49.342;10.802;2022-10-16T13:07:39;20.90;99.90
11152;DHT22;5630;49.342;10.802;2022-10-16T13:16:18;20.90;99.90
11152;DHT22;5630;49.342;10.802;2022-10-16T13:19:09;21.00;99.90
11152;DHT22;5630;49.342;10.802;2022-10-16T13:26:57;21.10;99.90
11152;DHT22;5630;49.342;10.802;2022-10-16T13:29:30;21.10;99.90
11152;DHT22;5630;49.342;10.802;2022-10-16T13:31:56;21.20;99.90
11152;DHT22;5630;49.342;10.802;2022-10-16T13:34:22;21.10;99.90
11152;DHT22;5630;49.342;10.802;2022-10-16T13:36:50;21.10;99.90
11152;DHT22;5630;49.342;10.802;2022-10-16T13:42:11;21.00;99.90
11152;DHT22;5630;49.342;10.802;2022-10-16T13:44:47;21.00;99.90
11152;DHT22;5630;49.342;10.802;2022-10-16T13:47:16;21.00;99.90
11152;DHT22;5630;49.342;10.802;2022-10-16T13:49:42;20.90;99.90
11152;DHT22;5630;49.342;10.802;2022-10-16T13:52:18;20.90;99.90
11152;DHT22;5630;49.342;10.802;2022-10-16T13:54:43;20.80;99.90
11152;DHT22;5630;49.342;10.802;2022-10-16T13:57:16;20.80;99.90
11152;DHT22;5630;49.342;10.802;2022-10-16T13:59:42;20.70;99.90
11152;DHT22;5630;49.342;10.802;2022-10-16T14:02:27;20.70;99.90
11152;DHT22;5630;49.342;10.802;2022-10-16T14:04:55;20.60;99.90
11152;DHT22;5630;49.342;10.802;2022-10-16T14:07:25;20.60;99.90
11152;DHT22;5630;49.342;10.802;2022-10-16T14:09:52;20.60;99.90
11152;DHT22;5630;49.342;10.802;2022-10-16T14:12:18;20.50;99.90
11152;DHT22;5630;49.342;10.802;2022-10-16T14:14:46;20.50;99.90
11152;DHT22;5630;49.342;10.802;2022-10-16T14:17:20;20.40;99.90
11152;DHT22;5630;49.342;10.802;2022-10-16T14:19:48;20.40;99.90
11152;DHT22;5630;49.342;10.802;2022-10-16T14:22:37;20.40;99.90
11152;DHT22;5630;49.342;10.802;2022-10-16T14:25:25;20.30;99.90
11152;DHT22;5630;49.342;10.802;2022-10-16T14:28:18;20.30;99.90
11152;DHT22;5630;49.342;10.802;2022-10-16T14:30:55;20.20;99.90
11152;DHT22;5630;49.342;10.802;2022-10-16T14:33:24;20.20;99.90
11152;DHT22;5630;49.342;10.802;2022-10-16T14:36:01;20.20;99.90
11152;DHT22;5630;49.342;10.802;2022-10-16T14:38:27;20.10;99.90
11152;DHT22;5630;49.342;10.802;2022-10-16T14:40:53;20.10;99.90
11152;DHT22;5630;49.342;10.802;2022-10-16T14:43:31;20.20;99.90
11152;DHT22;5630;49.342;10.802;2022-10-16T14:45:58;20.20;99.90
11152;DHT22;5630;49.342;10.802;2022-10-16T14:48:24;20.20;99.90
11152;DHT22;5630;49.342;10.802;2022-10-16T14:50:50;20.20;99.90
11152;DHT22;5630;49.342;10.802;2022-10-16T14:53:16;20.10;99.90
11152;DHT22;5630;49.342;10.802;2022-10-16T14:55:42;20.10;99.90
11152;DHT22;5630;49.342;10.802;2022-10-16T14:58:16;20.00;99.90
11152;DHT22;5630;49.342;10.802;2022-10-16T15:00:43;20.00;99.90
11152;DHT22;5630;49.342;10.802;2022-10-16T15:03:09;19.90;99.90
11152;DHT22;5630;49.342;10.802;2022-10-16T15:05:34;19.80;99.90
11152;DHT22;5630;49.342;10.802;2022-10-16T15:08:00;19.80;99.90
11152;DHT22;5630;49.342;10.802;2022-10-16T15:10:27;19.70;99.90
11152;DHT22;5630;49.342;10.802;2022-10-16T15:12:54;19.60;99.90
11152;DHT22;5630;49.342;10.802;2022-10-16T15:17:54;19.60;99.90
11152;DHT22;5630;49.342;10.802;2022-10-16T15:20:31;19.50;99.90
11152;DHT22;5630;49.342;10.802;2022-10-16T15:23:21;19.40;99.90
11152;DHT22;5630;49.342;10.802;2022-10-16T15:25:47;19.40;99.90
11152;DHT22;5630;49.342;10.802;2022-10-16T15:28:14;19.30;99.90
11152;DHT22;5630;49.342;10.802;2022-10-16T15:30:40;19.30;99.90
11152;DHT22;5630;49.342;10.802;2022-10-16T15:33:15;19.30;99.90
11152;DHT22;5630;49.342;10.802;2022-10-16T15:35:41;19.20;99.90
11152;DHT22;5630;49.342;10.802;2022-10-16T15:38:11;19.10;99.90
11152;DHT22;5630;49.342;10.802;2022-10-16T15:40:38;19.10;99.90
11152;DHT22;5630;49.342;10.802;2022-10-16T15:43:04;19.10;99.90
11152;DHT22;5630;49.342;10.802;2022-10-16T15:45:29;19.10;99.90
11152;DHT22;5630;49.342;10.802;2022-10-16T15:47:55;19.00;99.90
11152;DHT22;5630;49.342;10.802;2022-10-16T15:50:20;19.00;99.90
11152;DHT22;5630;49.342;10.802;2022-10-16T15:52:46;19.00;99.90
11152;DHT22;5630;49.342;10.802;2022-10-16T15:55:13;18.90;99.90
11152;DHT22;5630;49.342;10.802;2022-10-16T15:57:39;18.90;99.90
11152;DHT22;5630;49.342;10.802;2022-10-16T16:00:08;18.80;99.90
11152;DHT22;5630;49.342;10.802;2022-10-16T16:02:34;18.80;99.90
11152;DHT22;5630;49.342;10.802;2022-10-16T16:04:59;18.80;99.90
11152;DHT22;5630;49.342;10.802;2022-10-16T16:07:25;18.70;99.90
11152;DHT22;5630;49.342;10.802;2022-10-16T16:09:52;18.70;99.90
11152;DHT22;5630;49.342;10.802;2022-10-16T16:12:18;18.70;99.90
11152;DHT22;5630;49.342;10.802;2022-10-16T16:14:43;18.60;99.90
11152;DHT22;5630;49.342;10.802;2022-10-16T16:17:11;18.60;99.90
11152;DHT22;5630;49.342;10.802;2022-10-16T16:19:37;18.50;99.90
11152;DHT22;5630;49.342;10.802;2022-10-16T16:22:02;18.50;99.90
11152;DHT22;5630;49.342;10.802;2022-10-16T16:24:28;18.50;99.90
11152;DHT22;5630;49.342;10.802;2022-10-16T16:26:54;18.40;99.90
11152;DHT22;5630;49.342;10.802;2022-10-16T16:29:19;18.40;99.90
11152;DHT22;5630;49.342;10.802;2022-10-16T16:31:45;18.40;99.90
11152;DHT22;5630;49.342;10.802;2022-10-16T16:34:12;18.30;99.90
11152;DHT22;5630;49.342;10.802;2022-10-16T16:36:38;18.30;99.90
11152;DHT22;5630;49.342;10.802;2022-10-16T16:39:06;18.30;99.90
11152;DHT22;5630;49.342;10.802;2022-10-16T16:41:31;18.20;99.90
11152;DHT22;5630;49.342;10.802;2022-10-16T16:44:03;18.20;99.90
11152;DHT22;5630;49.342;10.802;2022-10-16T16:46:30;18.20;99.90
11152;DHT22;5630;49.342;10.802;2022-10-16T16:48:58;18.20;99.90
11152;DHT22;5630;49.342;10.802;2022-10-16T16:51:23;18.10;99.90
11152;DHT22;5630;49.342;10.802;2022-10-16T16:53:51;18.10;99.90
11152;DHT22;5630;49.342;10.802;2022-10-16T16:56:18;18.00;99.90
11152;DHT22;5630;49.342;10.802;2022-10-16T16:58:51;18.00;99.90
11152;DHT22;5630;49.342;10.802;2022-10-16T17:01:17;18.00;99.90
11152;DHT22;5630;49.342;10.802;2022-10-16T17:03:44;18.00;99.90
11152;DHT22;5630;49.342;10.802;2022-10-16T17:06:11;17.90;99.90
11152;DHT22;5630;49.342;10.802;2022-10-16T17:08:37;17.90;99.90
11152;DHT22;5630;49.342;10.802;2022-10-16T17:11:04;17.90;99.90
11152;DHT22;5630;49.342;10.802;2022-10-16T17:13:32;17.90;99.90
11152;DHT22;5630;49.342;10.802;2022-10-16T17:16:00;17.80;99.90
11152;DHT22;5630;49.342;10.802;2022-10-16T17:18:26;17.80;99.90
11152;DHT22;5630;49.342;10.802;2022-10-16T17:20:52;17.80;99.90
11152;DHT22;5630;49.342;10.802;2022-10-16T17:23:19;17.80;99.90
11152;DHT22;5630;49.342;10.802;2022-10-16T17:25:45;17.70;99.90
11152;DHT22;5630;49.342;10.802;2022-10-16T17:28:11;17.80;99.90
11152;DHT22;5630;49.342;10.802;2022-10-16T17:30:41;17.70;99.90
11152;DHT22;5630;49.342;10.802;2022-10-16T17:33:07;17.70;99.90
11152;DHT22;5630;49.342;10.802;2022-10-16T17:35:43;17.60;99.90
11152;DHT22;5630;49.342;10.802;2022-10-16T17:38:10;17.60;99.90
11152;DHT22;5630;49.342;10.802;2022-10-16T17:40:37;17.60;99.90
11152;DHT22;5630;49.342;10.802;2022-10-16T17:43:03;17.60;99.90
11152;DHT22;5630;49.342;10.802;2022-10-16T17:45:29;17.60;99.90
11152;DHT22;5630;49.342;10.802;2022-10-16T17:47:55;17.50;99.90